createdAt,value
2019-05-29T00:00:48.131Z,7.62
2019-05-29T00:05:51.726Z,7.72
2019-05-29T00:10:55.293Z,6.67
2019-05-29T00:15:58.738Z,6.25
2019-05-29T00:21:02.371Z,6.12
2019-05-29T00:26:06.333Z,5.87
2019-05-29T00:31:09.967Z,7.05
2019-05-29T00:36:14.329Z,6.33
2019-05-29T00:41:17.911Z,5.25
2019-05-29T00:46:21.362Z,7.17
2019-05-29T00:51:25.249Z,5.50
2019-05-29T00:56:28.698Z,4.47
2019-05-29T01:01:32.172Z,5.58
2019-05-29T01:06:35.622Z,7.35
2019-05-29T01:11:39.050Z,5.15
2019-05-29T01:16:42.511Z,5.28
2019-05-29T01:21:46.057Z,5.47
2019-05-29T01:26:49.712Z,5.95
2019-05-29T01:31:53.153Z,4.20
2019-05-29T01:36:56.584Z,6.00
2019-05-29T01:42:00.113Z,7.15
2019-05-29T01:47:03.593Z,7.35
2019-05-29T01:52:07.098Z,4.55
2019-05-29T01:57:10.854Z,4.20
2019-05-29T02:02:15.678Z,4.55
2019-05-29T02:07:19.977Z,4.67
2019-05-29T02:12:24.456Z,4.33
2019-05-29T02:17:28.055Z,6.03
2019-05-29T02:22:31.584Z,7.62
2019-05-29T02:27:35.113Z,8.35
2019-05-29T02:32:38.630Z,5.47
2019-05-29T02:37:42.144Z,5.10
2019-05-29T02:42:45.545Z,3.47
2019-05-29T02:47:48.971Z,5.70
2019-05-29T02:52:52.449Z,4.10
2019-05-29T02:57:55.991Z,5.50
2019-05-29T03:02:59.508Z,5.60
2019-05-29T03:08:02.995Z,5.33
2019-05-29T03:13:06.420Z,3.62
2019-05-29T03:18:09.866Z,6.28
2019-05-29T03:23:13.287Z,3.33
2019-05-29T03:28:16.717Z,5.92
2019-05-29T03:33:20.256Z,2.60
2019-05-29T03:38:23.711Z,4.22
2019-05-29T03:43:28.599Z,2.47
2019-05-29T03:48:32.845Z,4.80
2019-05-29T03:53:38.513Z,3.83
2019-05-29T03:58:42.164Z,4.40
2019-05-29T04:03:45.633Z,3.37
2019-05-29T04:08:49.149Z,4.95
2019-05-29T04:13:52.673Z,3.10
2019-05-29T04:18:56.102Z,5.12
2019-05-29T04:24:00.794Z,3.95
2019-05-29T04:29:04.777Z,3.60
2019-05-29T04:34:08.491Z,4.35
2019-05-29T04:39:12.731Z,5.47
2019-05-29T04:44:16.300Z,3.65
2019-05-29T04:49:20.394Z,3.50
2019-05-29T04:54:24.163Z,3.62
2019-05-29T04:59:28.779Z,4.10
2019-05-29T05:04:33.219Z,3.30
2019-05-29T05:09:37.557Z,7.42
2019-05-29T05:14:41.096Z,7.97
2019-05-29T05:19:44.728Z,4.58
2019-05-29T05:24:48.206Z,6.08
2019-05-29T05:29:51.729Z,5.62
2019-05-29T05:34:55.242Z,6.80
2019-05-29T05:39:58.773Z,6.75
2019-05-29T05:45:03.244Z,11.75
2019-05-29T05:50:08.851Z,7.12
2019-05-29T05:55:12.315Z,5.12
2019-05-29T06:00:19.187Z,7.17
2019-05-29T06:05:22.666Z,5.45
2019-05-29T06:10:26.102Z,5.72
2019-05-29T06:15:29.730Z,4.35
2019-05-29T06:20:33.211Z,3.80
2019-05-29T06:25:38.650Z,3.25
2019-05-29T06:30:43.305Z,5.47
2019-05-29T06:35:46.953Z,2.62
2019-05-29T06:40:50.477Z,3.62
2019-05-29T06:45:54.205Z,3.98
2019-05-29T06:50:57.900Z,8.50
2019-05-29T06:56:02.544Z,5.50
2019-05-29T07:01:06.540Z,6.35
2019-05-29T07:06:10.117Z,5.70
2019-05-29T07:11:13.608Z,3.98
2019-05-29T07:16:17.855Z,6.87
2019-05-29T07:21:21.910Z,6.35
2019-05-29T07:26:25.363Z,5.00
2019-05-29T07:31:28.854Z,6.25
2019-05-29T07:36:32.486Z,6.03
2019-05-29T07:41:36.016Z,4.65
2019-05-29T07:46:40.066Z,6.28
2019-05-29T07:51:46.608Z,6.22
2019-05-29T07:56:48.989Z,3.65
2019-05-29T08:01:52.520Z,7.45
2019-05-29T08:06:56.028Z,4.08
2019-05-29T08:11:59.460Z,5.90
2019-05-29T08:17:03.084Z,12.15
2019-05-29T08:22:06.493Z,12.03
2019-05-29T08:27:10.078Z,6.22
2019-05-29T08:32:13.620Z,7.42
2019-05-29T08:37:17.028Z,8.93
2019-05-29T08:42:23.624Z,10.93
2019-05-29T08:47:25.635Z,5.55
2019-05-29T08:52:29.099Z,11.95
2019-05-29T08:57:32.624Z,7.80
2019-05-29T09:02:36.043Z,5.85
2019-05-29T09:07:39.524Z,5.17
2019-05-29T09:12:49.495Z,6.60
2019-05-29T09:17:48.215Z,6.85
2019-05-29T09:22:51.835Z,5.30
2019-05-29T09:27:55.471Z,4.80
2019-05-29T09:32:59.066Z,6.97
2019-05-29T09:38:02.785Z,3.92
2019-05-29T09:43:06.402Z,4.20
2019-05-29T09:48:09.899Z,3.47
2019-05-29T09:53:13.367Z,4.30
2019-05-29T09:58:17.255Z,4.83
2019-05-29T10:03:20.757Z,4.62
2019-05-29T10:08:24.387Z,6.10
2019-05-29T10:13:28.000Z,3.58
2019-05-29T10:18:32.912Z,8.55
2019-05-29T10:23:37.276Z,9.93
2019-05-29T10:28:55.799Z,7.47
2019-05-29T10:33:46.185Z,9.55
2019-05-29T10:38:50.725Z,7.45
2019-05-29T10:43:54.282Z,25.25
2019-05-29T10:48:57.818Z,21.45
2019-05-29T10:54:01.452Z,19.48
2019-05-29T10:59:05.464Z,29.42
2019-05-29T11:04:09.077Z,18.75
2019-05-29T11:09:12.505Z,14.23
2019-05-29T11:14:16.343Z,12.98
2019-05-29T11:19:19.825Z,10.00
2019-05-29T11:24:23.331Z,9.38
2019-05-29T11:29:26.855Z,8.65
2019-05-29T11:34:30.368Z,6.75
2019-05-29T11:39:34.003Z,8.00
2019-05-29T11:44:37.603Z,6.40
2019-05-29T11:49:41.324Z,4.28
2019-05-29T11:54:45.051Z,6.50
2019-05-29T11:59:51.735Z,7.85
2019-05-29T12:04:53.645Z,5.70
2019-05-29T12:09:57.494Z,4.65
2019-05-29T12:15:12.251Z,4.33
2019-05-29T12:20:26.447Z,4.62
2019-05-29T12:25:13.250Z,7.35
2019-05-29T12:30:17.189Z,3.60
2019-05-29T12:35:21.037Z,3.37
2019-05-29T12:40:25.877Z,7.97
2019-05-29T12:45:29.396Z,2.83
2019-05-29T12:50:34.580Z,2.65
2019-05-29T12:55:38.345Z,2.60
2019-05-29T13:00:42.293Z,5.30
2019-05-29T13:05:45.881Z,3.20
2019-05-29T13:10:49.825Z,4.47
2019-05-29T13:15:54.592Z,5.25
2019-05-29T13:20:58.945Z,2.92
2019-05-29T13:26:03.611Z,2.20
2019-05-29T13:31:08.088Z,4.37
2019-05-29T13:36:11.675Z,2.17
2019-05-29T13:41:15.217Z,3.83
2019-05-29T13:46:18.801Z,4.30
2019-05-29T13:51:22.632Z,3.62
2019-05-29T13:56:26.245Z,3.25
2019-05-29T14:01:30.091Z,7.97
2019-05-29T14:06:34.089Z,6.95
2019-05-29T14:11:39.270Z,5.85
2019-05-29T14:16:43.305Z,6.60
2019-05-29T14:21:46.793Z,8.75
2019-05-29T14:26:50.518Z,6.20
2019-05-29T14:31:54.150Z,6.33
2019-05-29T14:36:57.659Z,7.33
2019-05-29T14:42:01.720Z,9.25
2019-05-29T14:47:05.967Z,9.68
2019-05-29T14:52:11.308Z,9.30
2019-05-29T14:57:24.751Z,9.80
2019-05-29T15:02:23.812Z,10.23
2019-05-29T15:07:26.073Z,9.45
2019-05-29T15:12:29.601Z,8.03
2019-05-29T15:17:33.217Z,6.70
2019-05-29T15:22:36.834Z,7.30
2019-05-29T15:27:40.487Z,8.50
2019-05-29T15:32:44.382Z,7.62
2019-05-29T15:37:48.093Z,9.40
2019-05-29T15:42:51.604Z,7.85
2019-05-29T15:47:55.222Z,6.67
2019-05-29T15:52:58.766Z,6.92
2019-05-29T15:58:02.587Z,9.85
2019-05-29T16:03:07.600Z,7.35
2019-05-29T16:08:11.962Z,5.08
2019-05-29T16:13:17.288Z,6.50
2019-05-29T16:18:28.134Z,10.20
2019-05-29T16:23:35.061Z,6.50
2019-05-29T16:28:33.123Z,7.67
2019-05-29T16:33:36.792Z,7.80
2019-05-29T16:38:40.512Z,6.08
2019-05-29T16:43:44.536Z,5.67
2019-05-29T16:48:48.127Z,3.65
2019-05-29T16:53:52.050Z,8.65
2019-05-29T16:58:56.525Z,9.05
2019-05-29T17:04:01.255Z,3.27
2019-05-29T17:09:09.861Z,9.33
2019-05-29T17:14:14.358Z,5.28
2019-05-29T17:19:18.571Z,6.08
2019-05-29T17:24:22.991Z,10.82
2019-05-29T17:29:26.609Z,8.75
2019-05-29T17:34:30.118Z,8.78
2019-05-29T17:39:33.716Z,8.23
2019-05-29T17:44:37.176Z,7.50
2019-05-29T17:49:41.609Z,9.75
2019-05-29T17:54:47.101Z,8.95
2019-05-29T17:59:50.328Z,7.25
2019-05-29T18:04:53.944Z,7.83
2019-05-29T18:09:57.482Z,6.53
2019-05-29T18:15:00.997Z,13.28
2019-05-29T18:20:07.656Z,9.20
2019-05-29T18:25:11.173Z,8.78
2019-05-29T18:30:15.200Z,8.58
2019-05-29T18:35:19.016Z,11.30
2019-05-29T18:40:22.739Z,9.08
2019-05-29T18:45:26.773Z,8.43
2019-05-29T18:50:32.731Z,9.25
2019-05-29T18:55:36.486Z,5.83
2019-05-29T19:00:40.546Z,6.03
2019-05-29T19:05:46.190Z,10.05
2019-05-29T19:10:49.899Z,6.70
2019-05-29T19:15:53.582Z,6.40
2019-05-29T19:20:57.100Z,4.33
2019-05-29T19:26:00.626Z,7.30
2019-05-29T19:31:04.153Z,4.53
2019-05-29T19:36:08.608Z,6.03
2019-05-29T19:41:12.078Z,3.85
2019-05-29T19:46:15.613Z,6.35
2019-05-29T19:51:19.130Z,8.55
2019-05-29T19:56:22.716Z,4.55
2019-05-29T20:01:31.711Z,4.28
2019-05-29T20:06:32.792Z,3.65
2019-05-29T20:11:37.893Z,4.60
2019-05-29T20:16:41.615Z,5.22
2019-05-29T20:21:45.102Z,9.18
2019-05-29T20:26:48.644Z,6.53
2019-05-29T20:31:52.233Z,7.97
2019-05-29T20:36:55.779Z,4.62
2019-05-29T20:41:59.570Z,5.87
2019-05-29T20:47:03.217Z,2.62
2019-05-29T20:52:06.698Z,6.08
2019-05-29T20:57:13.006Z,2.67
2019-05-29T21:02:18.284Z,8.78
2019-05-29T21:07:21.876Z,3.98
2019-05-29T21:12:25.361Z,5.17
2019-05-29T21:17:28.904Z,4.15
2019-05-29T21:22:32.596Z,3.95
2019-05-29T21:27:37.112Z,4.97
2019-05-29T21:32:41.938Z,5.10
2019-05-29T21:37:46.668Z,5.15
2019-05-29T21:42:50.128Z,3.27
2019-05-29T21:47:53.645Z,6.62
2019-05-29T21:52:58.722Z,7.87
2019-05-29T21:58:02.239Z,3.20
2019-05-29T22:03:06.058Z,4.85
2019-05-29T22:08:09.545Z,4.20
2019-05-29T22:13:13.190Z,4.78
2019-05-29T22:18:16.605Z,4.47
2019-05-29T22:23:20.115Z,5.83
2019-05-29T22:28:23.553Z,5.08
2019-05-29T22:33:28.118Z,5.40
2019-05-29T22:38:31.653Z,5.90
2019-05-29T22:43:35.402Z,2.12
2019-05-29T22:48:38.914Z,5.12
2019-05-29T22:53:42.405Z,2.40
2019-05-29T22:58:45.943Z,2.50
2019-05-29T23:03:49.429Z,3.05
2019-05-29T23:08:54.036Z,4.70
2019-05-29T23:14:00.363Z,6.85
2019-05-29T23:19:02.969Z,6.15
2019-05-29T23:24:06.483Z,3.52
2019-05-29T23:29:09.972Z,4.03
2019-05-29T23:34:13.483Z,5.17
2019-05-29T23:39:17.096Z,4.55
2019-05-29T23:44:20.641Z,5.17
2019-05-29T23:49:24.230Z,4.15
2019-05-29T23:54:27.668Z,6.42
2019-05-29T23:59:31.154Z,5.45
